Airfield :
LOGIN :

Register | Disclaimer

   EN    FR    IT 

 










Legend :    VFR   Marginal VFR   IFR   Intensive IFR   Very Intensive IFR
Visi :
Ceiling :
>= 8 km
>= 3000ft
5 to 8 km
1000 to 3000 ft
1500m to 5 km
500 to 1000 ft
800 to 1500m
200 to 500 ft
< 800m
< 200 ft
Symbols :   Thunderstorms  Fog  Heavy snow  Heavy precipitations  Wind > 20 kt
SIGMETs :     Misc.  Thunderstorms  Icing  Turbulence  Mountain Waves  Volcanic Ashes







- Airport Elevation : 135 ft
- IATA code : EDI
- Download approach charts


EGPH - Edinburgh

CURRENT METAR :
  • 210920Z 06012KT CAVOK 15/11 Q1014

EXPIRED METARs :
  • 210850Z 06010KT CAVOK 14/11 Q1014
  • 210820Z 07005KT 020V100 CAVOK 14/11 Q1014
  • 210750Z 07005KT CAVOK 13/10 Q1014
  • 210720Z 06004KT 040V110 CAVOK 11/10 Q1014
  • 210650Z 05005KT CAVOK 11/09 Q1014

TAF TAF EGPH
Valid from the 21 at 06:00 until the 22 at 06:00 UTC


210455Z 2106/2206 06009KT CAVOK
TEMPO 2106/2108 6000 NSC
TEMPO 2122/2206 6000 NSC
PROB40
TEMPO 2202/2206 3000 BR MIFG
ATIS : +44 131 339 2823
No reported NOTAMs for that airfield.



MET'MAP, your aeronautical weather chart ! - Copyright ORBIFLY December 2007 - Disclaimer

ORBIFLY MET'MAP TEAM :

Programming & Development : Alexandra Zaïnal
Concept & Development : Baudouin d'Aumeries
Co-Development & Prog : Marc-Olivier Méhu
Technical & hardware support : Manuel Goepfert

Contact : metmap@orbifly.com




SOURCES & CREDITS :

   NOAA